Time;durP1;ratioP1;P1;durP2;ratioP2;P2;SDS_P1;SDS_P2;PMS_P1;PMS_P2;Temp;Humidity;BMP_temperature;BMP_pressure;BME280_temperature;BME280_humidity;BME280_pressure;Samples;Min_cycle;Max_cycle;Signal;HPM_P1;HPM_P2
2023/10/21 00:01:52;;;;;;;785.45;710.40;;;26.20;99.90;;;;;;5026925;28;20119;-69
2023/10/21 00:04:18;;;;;;;662.03;597.88;;;26.20;99.90;;;;;;5008932;28;20049;-69
2023/10/21 00:06:45;;;;;;;579.97;522.58;;;26.20;99.90;;;;;;5009058;28;20050;-69
2023/10/21 00:09:11;;;;;;;694.63;628.30;;;26.20;99.90;;;;;;5008809;28;20088;-68
2023/10/21 00:11:38;;;;;;;698.78;632.13;;;26.30;99.90;;;;;;5009052;28;20037;-68
2023/10/21 00:14:06;;;;;;;779.08;705.53;;;26.30;99.90;;;;;;5008691;28;20096;-68
2023/10/21 00:16:33;;;;;;;665.65;601.70;;;26.30;99.90;;;;;;4988276;28;20050;-69
2023/10/21 00:19:01;;;;;;;756.47;684.10;;;26.30;99.90;;;;;;5005955;28;20041;-68
2023/10/21 00:21:27;;;;;;;789.70;714.75;;;26.30;99.90;;;;;;5020057;28;20521;-69
2023/10/21 00:23:54;;;;;;;669.47;605.35;;;26.30;99.90;;;;;;5011046;28;20420;-69
2023/10/21 00:26:20;;;;;;;620.72;559.97;;;26.30;99.90;;;;;;5008575;28;20126;-69
2023/10/21 00:28:47;;;;;;;641.58;579.42;;;26.30;99.90;;;;;;5008799;28;20042;-69
2023/10/21 00:31:13;;;;;;;649.92;588.15;;;26.40;99.90;;;;;;5008501;28;20042;-68
2023/10/21 00:33:40;;;;;;;719.92;650.72;;;26.40;99.90;;;;;;5008333;28;20056;-68
2023/10/21 00:36:07;;;;;;;622.20;561.97;;;26.40;99.90;;;;;;5008535;28;20486;-69
2023/10/21 00:38:33;;;;;;;612.30;551.90;;;26.40;99.90;;;;;;5008429;28;20050;-68
2023/10/21 00:41:00;;;;;;;596.17;537.58;;;26.40;99.90;;;;;;5015162;28;20052;-68
2023/10/21 00:43:40;;;;;;;522.33;470.05;;;26.50;99.90;;;;;;5016286;28;20119;-68
2023/10/21 00:46:11;;;;;;;428.75;384.55;;;26.50;99.90;;;;;;5006280;28;20038;-69
2023/10/21 00:48:40;;;;;;;447.20;401.52;;;26.60;99.90;;;;;;5026748;28;20501;-68
2023/10/21 00:51:07;;;;;;;446.75;401.42;;;26.60;99.90;;;;;;5019161;28;20422;-67
2023/10/21 00:53:34;;;;;;;476.02;427.20;;;26.70;99.90;;;;;;5008625;28;20034;-68
2023/10/21 00:56:01;;;;;;;468.77;421.10;;;26.80;99.90;;;;;;5008099;28;20046;-68
2023/10/21 00:58:32;;;;;;;475.67;427.40;;;26.80;99.90;;;;;;5016000;28;20077;-66
2023/10/21 01:01:06;;;;;;;484.08;434.58;;;26.80;99.90;;;;;;5018209;28;20056;-66
2023/10/21 01:03:33;;;;;;;484.95;435.60;;;26.90;99.90;;;;;;5008420;28;20084;-66
2023/10/21 01:06:00;;;;;;;520.30;467.33;;;26.90;99.90;;;;;;5007781;28;20069;-66
2023/10/21 01:08:27;;;;;;;491.63;441.67;;;27.00;99.90;;;;;;5018875;28;20033;-66
2023/10/21 01:10:53;;;;;;;476.02;427.13;;;27.10;99.90;;;;;;5013160;28;20041;-71
2023/10/21 01:13:20;;;;;;;430.02;385.98;;;27.10;99.90;;;;;;5013595;28;20045;-69
2023/10/21 01:15:47;;;;;;;411.80;370.13;;;27.20;99.90;;;;;;5024210;28;20050;-66
2023/10/21 01:18:13;;;;;;;446.75;401.02;;;27.30;99.90;;;;;;5027227;28;20521;-67
2023/10/21 01:20:41;;;;;;;416.63;374.10;;;27.30;99.90;;;;;;5020750;28;20107;-66
2023/10/21 01:23:08;;;;;;;423.50;379.80;;;27.40;99.90;;;;;;5027721;28;20050;-64
2023/10/21 01:25:35;;;;;;;424.70;381.52;;;27.50;99.90;;;;;;5027354;28;20056;-65
2023/10/21 01:28:02;;;;;;;405.27;363.70;;;27.50;99.90;;;;;;5012599;28;20037;-66
2023/10/21 01:30:28;;;;;;;404.60;364.27;;;27.60;99.90;;;;;;5018412;28;20050;-64
2023/10/21 01:32:55;;;;;;;404.08;362.70;;;27.70;99.90;;;;;;5027013;28;20107;-65
2023/10/21 01:35:21;;;;;;;391.27;351.23;;;27.70;99.90;;;;;;5026806;28;20060;-64
2023/10/21 01:37:48;;;;;;;391.48;352.58;;;27.80;99.90;;;;;;5026802;28;20107;-65
2023/10/21 01:40:15;;;;;;;422.80;379.17;;;27.80;99.90;;;;;;5019814;28;20138;-65
2023/10/21 01:42:42;;;;;;;392.88;353.50;;;27.90;99.90;;;;;;5010226;28;20042;-65
2023/10/21 01:45:10;;;;;;;381.90;344.33;;;27.90;99.90;;;;;;5027018;28;20040;-65
2023/10/21 01:47:37;;;;;;;364.83;329.05;;;28.00;99.90;;;;;;5026667;28;20111;-65
2023/10/21 01:50:08;;;;;;;384.75;346.20;;;28.00;99.90;;;;;;5029110;28;20045;-65
2023/10/21 01:52:36;;;;;;;390.60;352.05;;;28.10;99.90;;;;;;5025737;28;20049;-66
2023/10/21 01:55:08;;;;;;;379.83;342.45;;;28.20;99.90;;;;;;5017095;28;20533;-65
2023/10/21 01:57:35;;;;;;;358.73;323.30;;;28.20;99.90;;;;;;5025399;28;20052;-66
2023/10/21 02:00:09;;;;;;;391.10;351.55;;;28.30;99.90;;;;;;5029214;28;20490;-66
2023/10/21 02:02:38;;;;;;;372.88;335.70;;;28.30;99.90;;;;;;5029799;28;20434;-66
2023/10/21 02:05:06;;;;;;;390.98;351.80;;;28.40;99.90;;;;;;5026015;28;20520;-65
2023/10/21 02:07:37;;;;;;;376.27;338.65;;;28.50;99.90;;;;;;5025301;28;20431;-66
2023/10/21 02:10:04;;;;;;;360.65;325.17;;;28.60;99.90;;;;;;5026780;28;20047;-67
2023/10/21 02:12:31;;;;;;;361.30;325.67;;;28.60;99.90;;;;;;5025100;28;20048;-67
2023/10/21 02:14:58;;;;;;;363.00;326.58;;;28.70;99.90;;;;;;5026343;28;20033;-67
2023/10/21 02:17:24;;;;;;;377.60;339.55;;;28.80;99.90;;;;;;5028657;28;20045;-66
2023/10/21 02:19:57;;;;;;;380.05;342.23;;;28.90;99.90;;;;;;5026591;28;20441;-67
2023/10/21 02:22:26;;;;;;;392.25;352.63;;;28.90;99.90;;;;;;5029417;28;20503;-67
2023/10/21 02:24:53;;;;;;;364.20;328.02;;;29.00;99.90;;;;;;5026581;28;20048;-67
2023/10/21 02:27:20;;;;;;;370.67;333.60;;;29.00;99.90;;;;;;5026704;28;20091;-67
2023/10/21 02:29:47;;;;;;;394.55;354.95;;;29.00;99.90;;;;;;5032912;28;20057;-67
2023/10/21 02:32:13;;;;;;;375.33;337.52;;;29.00;99.90;;;;;;5032712;28;20025;-65
2023/10/21 02:34:40;;;;;;;384.13;345.50;;;29.10;99.90;;;;;;5033081;28;20504;-66
2023/10/21 02:37:06;;;;;;;389.10;350.20;;;29.30;99.90;;;;;;5032756;28;20460;-65
2023/10/21 02:39:33;;;;;;;403.00;361.70;;;29.40;99.90;;;;;;5032252;28;20381;-67
2023/10/21 02:41:59;;;;;;;402.98;362.40;;;29.60;99.90;;;;;;5013124;28;20550;-65
2023/10/21 02:44:27;;;;;;;381.00;342.77;;;29.60;99.90;;;;;;5023020;28;20360;-65
2023/10/21 02:46:53;;;;;;;369.42;332.60;;;29.60;99.90;;;;;;5022264;28;20458;-65
2023/10/21 02:49:20;;;;;;;348.88;314.30;;;29.80;99.90;;;;;;5023992;28;20028;-65
2023/10/21 02:51:47;;;;;;;367.48;331.83;;;29.80;99.90;;;;;;5023453;28;20466;-65
2023/10/21 02:54:14;;;;;;;377.13;339.55;;;29.80;99.90;;;;;;5023561;28;20075;-65
2023/10/21 02:56:43;;;;;;;370.33;333.13;;;29.70;99.90;;;;;;5022704;28;20030;-64
2023/10/21 02:59:10;;;;;;;367.42;331.08;;;29.80;99.90;;;;;;5021660;28;20026;-65
2023/10/21 03:01:36;;;;;;;425.30;381.30;;;29.80;99.90;;;;;;5023168;28;20017;-65
2023/10/21 03:04:03;;;;;;;431.77;387.08;;;29.80;99.90;;;;;;5023472;28;20022;-65
2023/10/21 03:06:30;;;;;;;461.67;413.75;;;29.90;99.90;;;;;;5022052;28;20032;-65
2023/10/21 03:08:56;;;;;;;476.27;426.45;;;30.00;99.90;;;;;;5022712;28;20014;-64
2023/10/21 03:11:24;;;;;;;448.02;400.85;;;30.10;99.90;;;;;;5023372;28;20077;-64
2023/10/21 03:13:50;;;;;;;443.17;396.35;;;30.20;99.90;;;;;;5021725;28;20030;-64
2023/10/21 03:16:17;;;;;;;433.70;388.67;;;30.30;99.90;;;;;;5024771;28;20025;-63
2023/10/21 03:18:46;;;;;;;408.08;365.55;;;30.40;99.90;;;;;;5026737;28;20080;-64
2023/10/21 03:21:13;;;;;;;431.38;383.77;;;30.40;99.90;;;;;;5024810;28;20022;-65
2023/10/21 03:23:39;;;;;;;403.70;359.58;;;30.40;99.90;;;;;;5026182;28;20060;-65
2023/10/21 03:26:07;;;;;;;402.42;359.10;;;30.50;99.90;;;;;;5027080;28;20042;-65
2023/10/21 03:28:34;;;;;;;359.10;321.00;;;30.60;99.90;;;;;;5033178;28;20030;-66
2023/10/21 03:31:04;;;;;;;363.23;324.08;;;30.60;99.90;;;;;;5028588;28;20072;-66
2023/10/21 03:33:31;;;;;;;357.52;319.83;;;30.60;99.90;;;;;;5025440;28;20030;-66
2023/10/21 03:36:00;;;;;;;364.63;325.40;;;30.60;99.90;;;;;;5026597;28;20022;-64
2023/10/21 03:38:27;;;;;;;338.83;302.75;;;30.60;99.90;;;;;;5025829;28;20033;-66
2023/10/21 03:41:07;;;;;;;372.35;332.33;;;30.70;99.90;;;;;;5027404;28;20025;-65
2023/10/21 03:43:34;;;;;;;389.17;347.35;;;30.80;99.90;;;;;;5025631;28;20222;-67
2023/10/21 03:46:08;;;;;;;356.52;318.38;;;30.90;99.90;;;;;;5026407;28;20013;-67
2023/10/21 03:48:35;;;;;;;341.55;304.20;;;30.90;99.90;;;;;;5019534;28;20030;-67
2023/10/21 03:51:11;;;;;;;353.33;314.90;;;31.00;99.90;;;;;;5018484;28;20025;-67
2023/10/21 03:53:41;;;;;;;339.70;304.33;;;30.90;99.90;;;;;;5016856;28;20482;-66
2023/10/21 03:56:09;;;;;;;345.52;309.60;;;31.00;99.90;;;;;;5016824;28;20108;-66
2023/10/21 03:58:36;;;;;;;427.27;343.17;;;31.10;99.90;;;;;;5016691;28;20113;-67
2023/10/21 04:01:02;;;;;;;313.95;280.90;;;31.20;99.90;;;;;;5015910;28;20022;-67
2023/10/21 04:03:29;;;;;;;346.52;310.48;;;31.20;99.90;;;;;;5016037;28;20475;-66
2023/10/21 04:05:56;;;;;;;353.23;315.48;;;31.20;99.90;;;;;;5015944;28;20448;-62
2023/10/21 04:08:24;;;;;;;319.55;287.30;;;31.30;99.90;;;;;;5018632;28;20410;-65
2023/10/21 04:10:54;;;;;;;359.90;312.98;;;31.20;99.90;;;;;;5025978;28;20026;-66
2023/10/21 04:13:21;;;;;;;323.85;291.13;;;31.30;99.90;;;;;;5025817;28;20037;-64
2023/10/21 04:15:49;;;;;;;381.92;338.42;;;31.40;99.90;;;;;;5024881;28;20072;-65
2023/10/21 04:18:15;;;;;;;440.67;362.05;;;31.40;99.90;;;;;;5029031;28;20026;-65
2023/10/21 04:20:42;;;;;;;396.92;349.75;;;31.50;99.90;;;;;;5028632;28;20021;-63
2023/10/21 04:23:09;;;;;;;357.58;317.58;;;31.60;99.90;;;;;;5036234;28;20033;-64
2023/10/21 04:25:35;;;;;;;348.33;311.73;;;31.80;99.90;;;;;;5025097;28;20076;-65
2023/10/21 04:28:02;;;;;;;330.30;296.80;;;31.80;99.90;;;;;;5025403;28;20382;-65
2023/10/21 04:30:29;;;;;;;331.23;296.42;;;31.80;99.90;;;;;;5027162;28;20536;-64
2023/10/21 04:32:55;;;;;;;333.77;299.38;;;31.80;99.90;;;;;;5035517;28;20486;-64
2023/10/21 04:35:22;;;;;;;346.02;309.80;;;31.90;99.90;;;;;;5023903;28;20494;-64
2023/10/21 04:37:49;;;;;;;366.10;328.92;;;31.90;99.90;;;;;;5015568;28;20034;-64
2023/10/21 04:40:15;;;;;;;378.48;339.80;;;32.00;99.90;;;;;;5015460;28;20112;-64
2023/10/21 04:42:43;;;;;;;374.50;336.20;;;32.00;99.90;;;;;;5020594;28;20022;-65
2023/10/21 04:45:10;;;;;;;379.45;339.23;;;32.00;99.90;;;;;;5024715;28;20025;-64
2023/10/21 04:47:37;;;;;;;360.38;324.10;;;32.00;99.90;;;;;;5026595;28;20022;-64
2023/10/21 04:50:05;;;;;;;359.58;323.80;;;32.00;99.90;;;;;;5035544;28;20022;-64
2023/10/21 04:52:32;;;;;;;361.70;325.63;;;32.00;99.90;;;;;;5034778;28;20028;-65
2023/10/21 04:55:00;;;;;;;831.10;750.55;;;32.00;99.90;;;;;;5034674;28;20017;-68
2023/10/21 04:57:26;;;;;;;744.13;671.35;;;32.20;99.90;;;;;;5034705;28;20080;-67
2023/10/21 04:59:53;;;;;;;705.28;636.28;;;32.30;99.90;;;;;;5034659;28;20022;-67
2023/10/21 05:02:20;;;;;;;659.17;591.17;;;32.30;99.90;;;;;;5034750;28;20468;-66
2023/10/21 05:04:46;;;;;;;616.13;553.55;;;32.40;99.90;;;;;;5034437;28;20026;-68
2023/10/21 05:07:13;;;;;;;610.95;549.47;;;32.40;99.90;;;;;;5035058;28;20017;-66
2023/10/21 05:09:39;;;;;;;602.63;541.28;;;32.40;99.90;;;;;;5034891;28;20071;-67
2023/10/21 05:12:06;;;;;;;597.22;537.05;;;32.50;99.90;;;;;;5030418;28;20029;-67
2023/10/21 05:14:33;;;;;;;594.70;534.00;;;32.60;99.90;;;;;;5022338;28;20062;-66
2023/10/21 05:16:59;;;;;;;583.85;524.83;;;32.60;99.90;;;;;;5031599;28;20033;-66
2023/10/21 05:19:26;;;;;;;586.85;527.10;;;32.70;99.90;;;;;;5021733;28;20029;-67
2023/10/21 05:21:52;;;;;;;665.53;597.20;;;32.80;99.90;;;;;;5021991;28;20083;-66
2023/10/21 05:24:19;;;;;;;551.38;495.02;;;32.70;99.90;;;;;;5024361;28;20022;-66
2023/10/21 05:26:45;;;;;;;539.38;484.33;;;32.70;99.90;;;;;;5025290;28;20041;-67
2023/10/21 05:29:12;;;;;;;526.55;472.90;;;32.70;99.90;;;;;;5028053;28;20017;-65
2023/10/21 05:31:39;;;;;;;524.58;470.90;;;32.60;99.90;;;;;;5025015;28;20029;-67
2023/10/21 05:34:06;;;;;;;528.22;474.05;;;32.70;99.90;;;;;;5023518;28;20272;-65
2023/10/21 05:36:32;;;;;;;505.15;453.20;;;32.70;99.90;;;;;;5034781;28;20040;-65
2023/10/21 05:38:59;;;;;;;531.65;477.63;;;32.60;99.90;;;;;;5022094;28;20475;-68
2023/10/21 05:41:25;;;;;;;531.10;476.83;;;32.60;99.90;;;;;;5025379;28;20075;-65
2023/10/21 05:43:52;;;;;;;514.47;461.73;;;32.60;99.90;;;;;;5024429;28;20030;-67
2023/10/21 05:46:18;;;;;;;512.25;459.73;;;32.60;99.90;;;;;;5023900;28;20013;-65
2023/10/21 05:48:45;;;;;;;497.15;445.48;;;32.70;99.90;;;;;;5027537;28;20524;-65
2023/10/21 05:51:12;;;;;;;521.78;467.98;;;32.70;99.90;;;;;;5023901;28;20160;-67
2023/10/21 05:53:38;;;;;;;519.60;465.98;;;32.70;99.90;;;;;;5024524;28;20030;-67
2023/10/21 05:56:05;;;;;;;514.55;461.80;;;32.80;99.90;;;;;;5025919;28;20071;-67
2023/10/21 05:58:32;;;;;;;529.83;475.98;;;32.80;99.90;;;;;;5024370;28;20282;-69
2023/10/21 06:01:08;;;;;;;532.92;478.90;;;32.80;99.90;;;;;;5024283;28;20194;-69
2023/10/21 06:03:39;;;;;;;523.25;469.80;;;32.90;99.90;;;;;;5023432;28;20418;-66
2023/10/21 06:06:06;;;;;;;504.42;452.60;;;32.90;99.90;;;;;;5019590;28;20033;-64
2023/10/21 06:08:32;;;;;;;503.70;451.85;;;33.00;99.90;;;;;;5014456;28;20025;-65
2023/10/21 06:10:59;;;;;;;499.83;447.95;;;33.10;99.90;;;;;;5013887;28;20391;-65
2023/10/21 06:13:26;;;;;;;516.90;463.63;;;33.20;99.90;;;;;;5013968;28;20475;-66
2023/10/21 06:15:52;;;;;;;507.02;454.75;;;33.20;99.90;;;;;;5014031;28;20034;-66
2023/10/21 06:18:20;;;;;;;485.63;435.38;;;33.20;99.90;;;;;;5013838;28;20394;-67
2023/10/21 06:20:50;;;;;;;482.20;431.98;;;33.20;99.90;;;;;;5025692;28;20449;-67
2023/10/21 06:23:17;;;;;;;493.60;442.48;;;33.30;99.90;;;;;;5023749;28;20045;-67
2023/10/21 06:25:44;;;;;;;492.58;441.42;;;33.40;99.90;;;;;;5023124;28;20574;-65
2023/10/21 06:28:13;;;;;;;519.80;466.23;;;33.40;99.90;;;;;;5026251;28;20034;-65
2023/10/21 06:30:42;;;;;;;519.58;466.35;;;33.50;99.90;;;;;;5026382;28;20395;-65
2023/10/21 06:33:09;;;;;;;506.38;454.42;;;33.50;99.90;;;;;;5022195;28;20034;-66
2023/10/21 06:35:39;;;;;;;487.88;437.65;;;33.50;99.90;;;;;;5024204;28;20386;-66
2023/10/21 06:38:09;;;;;;;486.77;436.33;;;33.60;99.90;;;;;;5022146;28;20052;-64
2023/10/21 06:40:36;;;;;;;495.92;444.90;;;33.60;99.90;;;;;;5020634;28;20033;-66
2023/10/21 06:43:03;;;;;;;457.85;410.55;;;33.60;99.90;;;;;;5021597;28;20435;-67
2023/10/21 06:45:29;;;;;;;475.80;426.73;;;33.70;99.90;;;;;;5023556;28;20033;-66
2023/10/21 06:47:56;;;;;;;474.65;425.45;;;33.70;99.90;;;;;;5021574;28;20022;-65
2023/10/21 06:50:23;;;;;;;460.75;412.95;;;33.60;99.90;;;;;;5024370;28;20025;-65
2023/10/21 06:52:49;;;;;;;473.38;424.65;;;33.60;99.90;;;;;;5028180;28;20030;-68
2023/10/21 06:55:17;;;;;;;465.80;417.75;;;33.50;99.90;;;;;;5033472;28;20034;-66
2023/10/21 06:57:44;;;;;;;472.98;424.00;;;33.50;99.90;;;;;;5025756;28;20033;-65
2023/10/21 07:00:12;;;;;;;470.00;420.88;;;33.40;99.90;;;;;;5023326;28;20038;-67
2023/10/21 07:02:38;;;;;;;491.40;441.17;;;33.40;99.90;;;;;;5024889;28;20033;-68
2023/10/21 07:05:09;;;;;;;443.30;397.42;;;33.40;99.90;;;;;;5026992;28;20501;-69
2023/10/21 07:07:40;;;;;;;464.90;416.65;;;33.40;99.90;;;;;;5026336;28;20075;-66
2023/10/21 07:10:09;;;;;;;456.58;409.50;;;33.40;99.90;;;;;;5018424;28;20482;-68
2023/10/21 07:12:37;;;;;;;428.40;384.20;;;33.50;99.90;;;;;;5018639;28;20072;-68
2023/10/21 07:15:04;;;;;;;428.63;384.45;;;33.50;99.90;;;;;;5030989;28;20022;-67
2023/10/21 07:17:32;;;;;;;421.00;377.15;;;33.60;99.90;;;;;;5035240;28;20041;-66
2023/10/21 07:19:59;;;;;;;452.17;404.90;;;33.60;99.90;;;;;;5034498;28;20100;-67
2023/10/21 07:22:25;;;;;;;451.33;404.42;;;33.70;99.90;;;;;;5023060;28;20025;-66
2023/10/21 07:24:58;;;;;;;428.63;384.20;;;33.70;99.90;;;;;;5014415;28;20430;-68
2023/10/21 07:27:26;;;;;;;464.05;416.15;;;33.80;99.90;;;;;;5027686;28;20407;-66
2023/10/21 07:29:55;;;;;;;451.35;404.73;;;33.80;99.90;;;;;;5033347;28;20075;-65
2023/10/21 07:32:23;;;;;;;464.23;415.90;;;33.80;99.90;;;;;;5028535;28;20053;-65
2023/10/21 07:34:50;;;;;;;455.17;407.65;;;33.80;99.90;;;;;;5022922;28;20049;-64
2023/10/21 07:37:17;;;;;;;474.05;424.67;;;33.90;99.90;;;;;;5023472;28;20409;-62
2023/10/21 07:39:43;;;;;;;462.48;414.58;;;33.90;99.90;;;;;;5024600;28;20033;-64
2023/10/21 07:42:10;;;;;;;444.92;398.88;;;33.90;99.90;;;;;;5028007;28;20034;-65
2023/10/21 07:44:36;;;;;;;459.13;411.50;;;34.00;99.90;;;;;;5033916;28;20033;-66
2023/10/21 07:47:04;;;;;;;468.80;420.45;;;34.00;99.90;;;;;;5034785;28;20488;-67
2023/10/21 07:49:31;;;;;;;443.33;396.92;;;34.10;99.90;;;;;;5031992;28;20029;-66
2023/10/21 07:51:58;;;;;;;460.23;412.75;;;34.10;99.90;;;;;;5029482;28;20029;-66
2023/10/21 07:54:25;;;;;;;447.70;401.15;;;34.10;99.90;;;;;;5030637;28;20022;-66
2023/10/21 07:56:53;;;;;;;437.38;391.33;;;34.10;99.90;;;;;;5031468;28;20033;-65
2023/10/21 07:59:21;;;;;;;432.90;388.05;;;34.10;99.90;;;;;;5032721;28;20025;-66
2023/10/21 08:01:47;;;;;;;443.67;397.83;;;34.20;99.90;;;;;;5032067;28;20131;-66
2023/10/21 08:04:14;;;;;;;449.05;402.70;;;34.20;99.90;;;;;;5033159;28;20029;-67
2023/10/21 08:06:44;;;;;;;455.30;408.27;;;34.20;99.90;;;;;;5033994;28;20030;-66
2023/10/21 08:09:14;;;;;;;463.55;415.48;;;34.30;99.90;;;;;;5034300;28;20474;-67
2023/10/21 08:11:41;;;;;;;434.70;389.70;;;34.30;99.90;;;;;;5034162;28;20037;-67
2023/10/21 08:14:08;;;;;;;432.38;387.42;;;34.30;99.90;;;;;;5034136;28;20040;-66
2023/10/21 08:16:35;;;;;;;451.90;405.13;;;34.30;99.90;;;;;;5034057;28;20136;-66
2023/10/21 08:19:01;;;;;;;447.67;401.30;;;34.30;99.90;;;;;;5034108;28;20080;-66
2023/10/21 08:21:28;;;;;;;441.10;395.50;;;34.30;99.90;;;;;;5033736;28;20112;-66
2023/10/21 08:23:54;;;;;;;431.40;386.95;;;34.30;99.90;;;;;;5034060;28;20017;-66
2023/10/21 08:26:21;;;;;;;452.05;405.42;;;34.30;99.90;;;;;;5033959;28;20041;-66
2023/10/21 08:28:48;;;;;;;456.65;409.85;;;34.20;99.90;;;;;;5033693;28;20057;-66
2023/10/21 08:31:15;;;;;;;423.83;380.50;;;34.20;99.90;;;;;;5033870;28;20494;-66
2023/10/21 08:33:41;;;;;;;432.05;387.33;;;34.20;99.90;;;;;;5033791;28;20394;-66
2023/10/21 08:36:19;;;;;;;431.48;387.40;;;34.20;99.90;;;;;;5033742;28;20452;-65
2023/10/21 08:38:47;;;;;;;424.83;381.63;;;34.20;99.90;;;;;;5033727;28;20026;-66
2023/10/21 08:41:15;;;;;;;407.40;365.75;;;34.20;99.90;;;;;;5033423;28;20363;-66
2023/10/21 08:43:50;;;;;;;420.73;377.80;;;34.20;99.90;;;;;;5033173;28;20036;-66
2023/10/21 08:46:18;;;;;;;412.60;370.45;;;34.20;99.90;;;;;;5014594;28;20025;-67
2023/10/21 08:48:48;;;;;;;427.98;383.75;;;34.20;99.90;;;;;;5013564;28;20030;-66
2023/10/21 08:51:21;;;;;;;449.90;403.67;;;34.20;99.90;;;;;;5013648;28;20026;-68
2023/10/21 08:53:52;;;;;;;436.20;390.73;;;34.30;99.90;;;;;;5014041;28;20479;-71
2023/10/21 08:56:19;;;;;;;440.80;394.98;;;34.30;99.90;;;;;;5014554;28;20025;-71
2023/10/21 08:58:46;;;;;;;459.95;412.50;;;34.30;99.90;;;;;;5014530;28;20099;-70
2023/10/21 09:01:16;;;;;;;432.00;387.65;;;34.30;99.90;;;;;;5014313;28;20041;-70
2023/10/21 09:03:46;;;;;;;450.88;403.70;;;34.30;99.90;;;;;;5014230;28;20097;-70
2023/10/21 09:06:13;;;;;;;487.02;436.30;;;34.30;99.90;;;;;;5014378;28;20029;-69
2023/10/21 09:08:41;;;;;;;460.30;412.45;;;34.20;99.90;;;;;;5012995;28;20390;-68
2023/10/21 09:11:12;;;;;;;468.05;418.65;;;34.00;99.90;;;;;;5013253;28;20433;-69
2023/10/21 09:13:40;;;;;;;456.27;408.75;;;33.90;99.90;;;;;;5013348;28;20029;-69
2023/10/21 09:16:21;;;;;;;447.90;401.38;;;33.90;99.90;;;;;;5013487;28;20026;-68
2023/10/21 09:19:07;;;;;;;499.67;448.23;;;33.70;99.90;;;;;;5013854;28;20037;-70
2023/10/21 09:21:34;;;;;;;496.10;444.40;;;33.70;99.90;;;;;;5013666;28;20061;-70
2023/10/21 09:24:02;;;;;;;468.88;420.13;;;33.60;99.90;;;;;;5013875;28;20037;-69
2023/10/21 09:26:47;;;;;;;465.88;417.30;;;33.70;99.90;;;;;;5016504;28;20045;-68
2023/10/21 09:29:16;;;;;;;445.52;399.38;;;33.70;99.90;;;;;;5033605;28;20091;-68
2023/10/21 09:31:53;;;;;;;454.65;407.67;;;33.60;99.90;;;;;;5033797;28;20029;-68
2023/10/21 09:34:27;;;;;;;442.85;396.58;;;33.60;99.90;;;;;;5033609;28;20025;-69
2023/10/21 09:36:58;;;;;;;432.65;387.67;;;33.70;99.90;;;;;;5033534;28;20501;-69
2023/10/21 09:39:27;;;;;;;414.37;371.63;;;33.70;99.90;;;;;;5033480;28;20060;-68
2023/10/21 09:41:54;;;;;;;439.23;393.13;;;33.70;99.90;;;;;;5033359;28;20026;-69
2023/10/21 09:44:24;;;;;;;417.83;374.13;;;33.70;99.90;;;;;;5030192;28;20073;-69
2023/10/21 09:46:54;;;;;;;414.42;371.13;;;33.60;99.90;;;;;;5029013;28;20033;-70
2023/10/21 09:49:22;;;;;;;417.70;374.02;;;33.60;99.90;;;;;;5021612;28;20028;-70
2023/10/21 09:51:54;;;;;;;403.25;361.55;;;33.50;99.90;;;;;;5013707;28;20108;-70
2023/10/21 09:54:48;;;;;;;423.65;380.20;;;33.40;99.90;;;;;;5013676;28;20033;-69
2023/10/21 09:57:15;;;;;;;405.75;363.65;;;33.40;99.90;;;;;;5010583;28;20065;-70
2023/10/21 09:59:46;;;;;;;426.25;380.83;;;33.20;99.90;;;;;;5013704;28;20026;-69
2023/10/21 10:02:13;;;;;;;407.13;365.02;;;33.10;99.90;;;;;;5013512;28;20017;-68
2023/10/21 10:04:40;;;;;;;383.80;344.10;;;33.10;99.90;;;;;;5013408;28;20021;-69
2023/10/21 10:07:07;;;;;;;391.17;350.45;;;33.00;99.90;;;;;;5013510;28;20434;-69
2023/10/21 10:09:38;;;;;;;404.90;362.60;;;33.00;99.90;;;;;;5013362;28;20030;-68
2023/10/21 10:12:17;;;;;;;398.73;357.73;;;32.80;99.90;;;;;;5013414;28;20104;-68
2023/10/21 10:14:45;;;;;;;422.60;377.40;;;32.50;99.90;;;;;;5013518;28;20026;-69
2023/10/21 10:17:13;;;;;;;387.02;346.33;;;32.40;99.90;;;;;;5013248;28;20029;-68
2023/10/21 10:19:42;;;;;;;355.67;318.80;;;32.30;99.90;;;;;;5013378;28;20038;-67
2023/10/21 10:22:28;;;;;;;366.67;329.42;;;32.10;99.90;;;;;;5013293;28;20037;-67
2023/10/21 10:25:05;;;;;;;368.50;330.80;;;32.00;99.90;;;;;;5014661;28;20093;-68
2023/10/21 10:27:42;;;;;;;371.33;333.30;;;32.00;99.90;;;;;;5017181;28;20042;-68
2023/10/21 10:30:20;;;;;;;438.70;392.48;;;32.00;99.90;;;;;;5017355;28;20036;-69
2023/10/21 10:32:51;;;;;;;364.48;327.40;;;32.10;99.90;;;;;;5017247;28;20026;-68
2023/10/21 10:35:37;;;;;;;367.97;330.47;;;32.10;99.90;;;;;;5016615;28;20021;-67
2023/10/21 10:38:31;;;;;;;317.02;285.88;;;32.00;99.90;;;;;;5016343;28;20018;-67
2023/10/21 10:41:07;;;;;;;340.45;305.95;;;31.90;99.90;;;;;;5016467;28;20029;-68
2023/10/21 10:43:34;;;;;;;330.85;297.77;;;31.80;99.90;;;;;;5016140;28;20021;-67
2023/10/21 10:46:02;;;;;;;356.02;319.98;;;31.80;99.90;;;;;;5016243;28;20101;-67
2023/10/21 10:48:29;;;;;;;334.70;300.50;;;31.80;99.90;;;;;;5016063;28;20026;-66
2023/10/21 10:51:00;;;;;;;361.52;324.65;;;31.90;99.90;;;;;;5016279;28;20076;-68
2023/10/21 10:53:27;;;;;;;370.80;332.75;;;31.80;99.90;;;;;;5016102;28;20032;-67
2023/10/21 10:55:54;;;;;;;360.45;323.23;;;31.80;99.90;;;;;;5016008;28;20041;-65
2023/10/21 10:58:21;;;;;;;350.27;314.70;;;31.80;99.90;;;;;;5015771;28;20044;-65
2023/10/21 11:00:50;;;;;;;375.65;337.38;;;31.70;99.90;;;;;;5015789;28;20073;-67
2023/10/21 11:03:33;;;;;;;353.23;317.50;;;31.70;99.90;;;;;;5015802;28;20026;-67
2023/10/21 11:06:00;;;;;;;346.00;311.20;;;31.70;99.90;;;;;;5015838;28;20072;-66
2023/10/21 11:08:28;;;;;;;343.73;308.85;;;31.70;99.90;;;;;;5015635;28;20022;-67
2023/10/21 11:11:10;;;;;;;355.92;319.60;;;31.70;99.90;;;;;;5015603;28;20041;-66
2023/10/21 11:13:37;;;;;;;361.08;324.65;;;31.60;99.90;;;;;;5028241;28;20112;-69
2023/10/21 11:16:05;;;;;;;373.17;335.13;;;31.50;99.90;;;;;;5018508;28;20041;-69
2023/10/21 11:18:32;;;;;;;410.60;358.83;;;31.50;99.90;;;;;;5033296;28;20758;-68
2023/10/21 11:20:58;;;;;;;529.17;366.05;;;31.50;99.90;;;;;;5023138;28;20037;-65
2023/10/21 11:23:26;;;;;;;360.48;322.65;;;31.60;99.90;;;;;;5035539;28;20032;-66
2023/10/21 11:25:58;;;;;;;365.35;326.83;;;31.60;99.90;;;;;;5033803;28;20718;-69
2023/10/21 11:28:26;;;;;;;372.40;333.63;;;31.60;99.90;;;;;;5033520;28;20041;-67
2023/10/21 11:30:54;;;;;;;318.63;285.90;;;31.60;99.90;;;;;;5025755;28;20363;-66
2023/10/21 11:33:21;;;;;;;328.88;296.00;;;31.60;99.90;;;;;;5024114;28;20162;-66
2023/10/21 11:35:51;;;;;;;336.55;301.92;;;31.60;99.90;;;;;;5025183;28;20268;-67
2023/10/21 11:38:18;;;;;;;365.95;328.38;;;31.60;99.90;;;;;;5026862;28;20098;-68
2023/10/21 11:40:46;;;;;;;326.38;294.10;;;31.60;99.90;;;;;;5026606;28;20394;-64
2023/10/21 11:43:16;;;;;;;333.25;299.58;;;31.60;99.90;;;;;;5026028;28;20010;-62
2023/10/21 11:45:44;;;;;;;346.70;311.85;;;31.60;99.90;;;;;;5025442;28;20077;-63
2023/10/21 11:48:10;;;;;;;340.50;305.38;;;31.60;99.90;;;;;;5028325;28;20449;-62
2023/10/21 11:50:47;;;;;;;348.95;313.48;;;31.60;99.90;;;;;;5027521;28;20087;-63
2023/10/21 11:53:14;;;;;;;328.83;295.85;;;31.60;99.90;;;;;;5025145;28;20029;-63
2023/10/21 12:40:36;;;;;;;247.73;222.80;;;30.90;99.90;;;;;;5033553;28;20048;-63
2023/10/21 12:45:58;;;;;;;219.77;198.70;;;30.80;99.90;;;;;;5024028;28;20035;-64
2023/10/21 12:48:25;;;;;;;213.52;193.20;;;30.80;99.90;;;;;;5021960;28;20101;-63
2023/10/21 12:50:54;;;;;;;211.15;191.35;;;30.70;99.90;;;;;;5023262;28;20463;-63
2023/10/21 12:53:21;;;;;;;225.05;203.52;;;30.60;99.90;;;;;;5020661;28;20034;-62
2023/10/21 12:55:48;;;;;;;219.40;198.60;;;30.60;99.90;;;;;;5020746;28;20079;-63
2023/10/21 12:58:15;;;;;;;231.40;208.32;;;30.50;99.90;;;;;;5022142;28;20030;-64
2023/10/21 13:00:44;;;;;;;241.98;219.20;;;30.40;99.90;;;;;;5021023;28;20486;-64
2023/10/21 13:03:12;;;;;;;216.60;195.93;;;30.40;99.90;;;;;;5021524;28;20096;-64